Time;durP1;ratioP1;P1;durP2;ratioP2;P2;SDS_P1;SDS_P2;PMS_P1;PMS_P2;Temp;Humidity;BMP_temperature;BMP_pressure;BME280_temperature;BME280_humidity;BME280_pressure;Samples;Min_cycle;Max_cycle;Signal;HPM_P1;HPM_P2
2022/04/22 00:01:22;;;;;;;8.05;6.85;;;12.90;88.80;;;;;;5085675;28;20140;-43
2022/04/22 00:03:47;;;;;;;6.93;6.18;;;12.90;89.30;;;;;;5094879;28;20537;-42
2022/04/22 00:06:13;;;;;;;7.40;6.70;;;12.80;89.30;;;;;;5085621;28;20044;-42
2022/04/22 00:08:39;;;;;;;9.15;6.70;;;12.80;89.80;;;;;;5095315;28;20468;-40
2022/04/22 00:13:49;;;;;;;8.77;6.28;;;12.80;90.00;;;;;;5095905;28;20042;-43
2022/04/22 00:16:17;;;;;;;7.88;6.15;;;12.70;90.00;;;;;;5084201;28;20021;-40
2022/04/22 00:18:43;;;;;;;8.82;6.50;;;12.70;90.00;;;;;;5090239;28;20097;-40
2022/04/22 00:21:09;;;;;;;8.90;6.90;;;12.70;90.30;;;;;;5104645;28;20039;-41
2022/04/22 00:23:34;;;;;;;9.05;6.82;;;12.60;90.50;;;;;;5099480;28;20035;-41
2022/04/22 00:26:03;;;;;;;8.35;6.95;;;12.60;90.50;;;;;;5103886;28;20024;-41
2022/04/22 00:28:31;;;;;;;9.50;7.45;;;12.60;90.60;;;;;;5098468;28;20854;-41
2022/04/22 00:30:57;;;;;;;8.85;7.25;;;12.60;90.60;;;;;;5083863;28;20032;-41
2022/04/22 00:33:22;;;;;;;8.43;7.18;;;12.50;90.70;;;;;;5093836;28;20024;-41
2022/04/22 00:35:48;;;;;;;8.88;7.00;;;12.50;90.70;;;;;;5086783;28;20032;-41
2022/04/22 00:38:15;;;;;;;9.10;6.78;;;12.50;90.80;;;;;;5090048;28;20030;-41
2022/04/22 00:40:40;;;;;;;9.65;7.18;;;12.50;90.90;;;;;;5089233;28;20494;-38
2022/04/22 00:43:21;;;;;;;9.20;6.95;;;12.40;91.10;;;;;;5088423;28;20040;-39
2022/04/22 00:45:47;;;;;;;10.32;7.53;;;12.40;91.20;;;;;;5089340;28;20036;-38
2022/04/22 00:48:14;;;;;;;7.68;6.88;;;12.30;91.40;;;;;;5086826;28;20028;-41
2022/04/22 00:50:40;;;;;;;8.77;6.68;;;12.40;91.30;;;;;;5092221;28;20039;-42
2022/04/22 00:53:07;;;;;;;8.40;6.93;;;12.30;91.30;;;;;;5084970;28;20030;-41
2022/04/22 00:55:35;;;;;;;9.15;6.70;;;12.30;91.30;;;;;;5092645;28;20044;-41
2022/04/22 00:58:04;;;;;;;8.43;6.53;;;12.30;91.40;;;;;;5084791;28;20118;-41
2022/04/22 01:00:33;;;;;;;6.57;5.97;;;12.20;91.40;;;;;;5097016;28;20535;-42
2022/04/22 01:02:59;;;;;;;9.25;6.50;;;12.20;91.60;;;;;;5088554;28;20046;-43
2022/04/22 01:10:55;;;;;;;8.48;6.03;;;12.10;91.50;;;;;;5099186;28;20819;-41
2022/04/22 01:13:21;;;;;;;7.13;6.28;;;12.10;91.60;;;;;;5087329;28;20024;-41
2022/04/22 01:15:47;;;;;;;8.13;5.93;;;12.00;91.70;;;;;;5097911;28;20034;-40
2022/04/22 01:18:16;;;;;;;7.13;5.28;;;12.00;91.70;;;;;;5087573;28;20030;-42
2022/04/22 01:20:42;;;;;;;8.85;5.75;;;12.00;91.70;;;;;;5093740;28;20023;-42
2022/04/22 01:23:07;;;;;;;7.55;5.63;;;12.00;91.70;;;;;;5106754;28;20030;-41
2022/04/22 01:25:33;;;;;;;8.85;5.30;;;12.00;91.80;;;;;;5093594;28;20115;-41
2022/04/22 01:28:00;;;;;;;7.40;5.72;;;11.90;91.90;;;;;;5106801;28;20059;-41
2022/04/22 01:30:26;;;;;;;8.02;5.85;;;11.90;92.00;;;;;;5094857;28;20468;-39
2022/04/22 01:32:57;;;;;;;7.07;5.90;;;11.90;92.00;;;;;;5105678;28;20031;-39
2022/04/22 01:35:24;;;;;;;6.35;5.43;;;11.80;92.00;;;;;;5097315;28;20035;-43
2022/04/22 01:37:52;;;;;;;6.13;4.93;;;11.80;92.20;;;;;;5103918;28;20031;-41
2022/04/22 01:40:18;;;;;;;7.50;5.75;;;11.80;92.20;;;;;;5100201;28;20028;-40
2022/04/22 01:42:44;;;;;;;9.70;7.40;;;11.80;92.30;;;;;;5100310;28;20036;-42
2022/04/22 01:45:12;;;;;;;8.43;6.28;;;11.70;92.40;;;;;;5102282;28;20035;-41
2022/04/22 01:47:38;;;;;;;7.13;5.50;;;11.70;92.40;;;;;;5098679;28;20056;-41
2022/04/22 01:50:04;;;;;;;7.82;5.53;;;11.70;92.50;;;;;;5103316;28;20080;-38
2022/04/22 01:52:30;;;;;;;5.97;4.80;;;11.70;92.50;;;;;;5095482;28;20104;-41
2022/04/22 01:54:56;;;;;;;8.20;5.50;;;11.60;92.60;;;;;;5104190;28;20474;-41
2022/04/22 01:57:22;;;;;;;6.60;5.82;;;11.60;92.60;;;;;;5094214;28;20043;-40
2022/04/22 01:59:48;;;;;;;10.32;6.68;;;11.60;92.90;;;;;;5105021;28;20491;-38
2022/04/22 02:02:15;;;;;;;8.88;6.10;;;11.60;92.80;;;;;;5094353;28;20045;-41
2022/04/22 02:04:41;;;;;;;8.15;6.15;;;11.60;92.80;;;;;;5105693;28;20107;-41
2022/04/22 02:07:07;;;;;;;7.20;5.97;;;11.60;92.90;;;;;;5093544;28;20661;-38
2022/04/22 02:09:32;;;;;;;7.30;5.90;;;11.50;92.90;;;;;;5105173;28;20032;-43
2022/04/22 02:11:58;;;;;;;8.77;5.85;;;11.50;93.00;;;;;;5092947;28;20119;-42
2022/04/22 02:14:25;;;;;;;6.40;5.65;;;11.50;93.10;;;;;;5105584;28;20109;-42
2022/04/22 02:16:51;;;;;;;6.65;5.88;;;11.50;93.20;;;;;;5095254;28;20028;-40
2022/04/22 02:19:17;;;;;;;6.55;5.57;;;11.50;93.20;;;;;;5103451;28;20035;-40
2022/04/22 02:21:42;;;;;;;7.43;6.00;;;11.50;93.20;;;;;;5098196;28;20039;-40
2022/04/22 02:24:08;;;;;;;7.78;5.78;;;11.40;93.20;;;;;;5085681;28;20031;-39
2022/04/22 02:28:31;;;;;;;5.90;5.00;;;11.40;93.20;;;;;;5089660;28;20145;-39
2022/04/22 02:29:19;;;;;;;6.72;5.13;;;11.40;93.20;;;;;;5090247;28;20378;-41
2022/04/22 02:31:45;;;;;;;7.18;5.25;;;11.40;93.40;;;;;;5089482;28;20550;-41
2022/04/22 02:34:14;;;;;;;6.20;4.60;;;11.30;93.50;;;;;;5094012;28;20031;-39
2022/04/22 02:36:41;;;;;;;6.85;5.32;;;11.30;93.60;;;;;;5087523;28;20016;-41
2022/04/22 02:39:07;;;;;;;6.70;5.30;;;11.30;93.80;;;;;;5094681;28;20026;-43
2022/04/22 02:47:00;;;;;;;7.53;5.55;;;11.20;94.30;;;;;;5103407;28;20066;-41
2022/04/22 02:49:25;;;;;;;5.03;4.55;;;11.10;94.40;;;;;;5095441;28;20055;-41
2022/04/22 02:51:51;;;;;;;7.90;6.03;;;11.10;94.60;;;;;;5103303;28;20107;-38
2022/04/22 02:54:17;;;;;;;7.82;6.53;;;11.00;94.80;;;;;;5094001;28;20027;-41
2022/04/22 02:56:42;;;;;;;7.75;6.05;;;11.00;95.30;;;;;;5104199;28;20047;-40
2022/04/22 02:59:11;;;;;;;8.15;5.25;;;11.00;95.30;;;;;;5093057;28;20019;-41
2022/04/22 03:01:37;;;;;;;7.68;6.07;;;11.00;95.50;;;;;;5105184;28;20032;-40
2022/04/22 03:04:05;;;;;;;9.02;6.78;;;10.90;95.60;;;;;;5092119;28;20473;-41
2022/04/22 03:06:30;;;;;;;7.80;5.95;;;10.90;96.20;;;;;;5103928;28;20051;-43
2022/04/22 03:08:56;;;;;;;7.53;5.38;;;10.90;96.20;;;;;;5092871;28;20671;-42
2022/04/22 03:11:21;;;;;;;9.70;5.88;;;10.80;96.20;;;;;;5105553;28;20027;-39
2022/04/22 03:13:49;;;;;;;7.80;6.63;;;10.80;96.40;;;;;;5093670;28;20032;-41
2022/04/22 03:16:17;;;;;;;7.32;6.03;;;10.80;96.60;;;;;;5103559;28;20070;-41
2022/04/22 03:18:43;;;;;;;7.85;6.25;;;10.80;96.80;;;;;;5096173;28;20550;-41
2022/04/22 03:21:08;;;;;;;8.52;6.20;;;10.80;97.10;;;;;;5099850;28;20043;-41
2022/04/22 03:23:34;;;;;;;8.32;6.30;;;10.70;97.30;;;;;;5099347;28;20040;-40
2022/04/22 03:25:59;;;;;;;8.65;6.43;;;10.70;97.50;;;;;;5098205;28;20044;-42
2022/04/22 03:28:26;;;;;;;10.75;6.70;;;10.70;97.90;;;;;;5101204;28;20046;-42
2022/04/22 03:30:51;;;;;;;9.10;7.35;;;10.70;98.10;;;;;;5095044;28;20161;-41
2022/04/22 03:33:20;;;;;;;7.95;6.20;;;10.70;98.30;;;;;;5103080;28;20020;-42
2022/04/22 03:35:50;;;;;;;10.38;7.35;;;10.70;98.40;;;;;;5092781;28;20042;-41
2022/04/22 03:38:16;;;;;;;11.05;7.53;;;10.70;98.70;;;;;;5103338;28;20028;-41
2022/04/22 03:40:42;;;;;;;9.50;6.45;;;10.70;98.90;;;;;;5092926;28;20030;-40
2022/04/22 03:43:07;;;;;;;8.23;6.70;;;10.70;99.00;;;;;;5104585;28;20032;-42
2022/04/22 03:45:33;;;;;;;8.40;6.97;;;10.60;99.20;;;;;;5091779;28;20019;-42
2022/04/22 03:47:59;;;;;;;10.48;8.00;;;10.60;99.50;;;;;;5104016;28;20803;-42
2022/04/22 03:50:28;;;;;;;12.35;9.20;;;10.60;99.60;;;;;;5091495;28;20028;-41
2022/04/22 03:52:54;;;;;;;10.00;8.13;;;10.60;99.90;;;;;;5105449;28;20019;-40
2022/04/22 03:55:20;;;;;;;12.23;9.15;;;10.60;99.90;;;;;;5092133;28;20046;-39
2022/04/22 04:00:29;;;;;;;10.95;9.20;;;10.60;99.90;;;;;;5092201;28;20040;-40
2022/04/22 04:02:55;;;;;;;11.13;9.20;;;10.60;99.90;;;;;;5102782;28;20036;-39
2022/04/22 04:05:20;;;;;;;11.25;9.60;;;10.60;99.90;;;;;;5095778;28;20016;-41
2022/04/22 04:07:46;;;;;;;15.48;10.57;;;10.60;99.90;;;;;;5103087;28;20622;-39
2022/04/22 04:16:00;;;;;;;10.63;9.10;;;10.60;99.90;;;;;;5096887;28;20051;-42
2022/04/22 04:18:27;;;;;;;9.45;8.45;;;10.60;99.90;;;;;;5103412;28;20106;-40
2022/04/22 04:23:37;;;;;;;13.48;9.88;;;10.50;99.90;;;;;;5091742;28;20050;-40
2022/04/22 04:26:03;;;;;;;11.57;9.15;;;10.50;99.90;;;;;;5095652;28;20028;-43
2022/04/22 04:28:28;;;;;;;12.27;9.73;;;10.40;99.90;;;;;;5100277;28;20135;-42
2022/04/22 04:30:57;;;;;;;12.52;9.32;;;10.40;99.90;;;;;;5097286;28;20459;-42
2022/04/22 04:33:22;;;;;;;11.05;9.05;;;10.40;99.90;;;;;;5098974;28;20020;-43
2022/04/22 04:35:48;;;;;;;10.98;9.32;;;10.40;99.90;;;;;;5103728;28;20016;-42
2022/04/22 04:38:14;;;;;;;9.75;8.63;;;10.40;99.90;;;;;;5099050;28;20032;-41
2022/04/22 04:40:43;;;;;;;10.75;9.65;;;10.40;99.90;;;;;;5106256;28;20024;-41
2022/04/22 04:43:08;;;;;;;10.98;9.88;;;10.40;99.90;;;;;;5086833;28;20028;-40
2022/04/22 04:45:35;;;;;;;10.63;9.07;;;10.40;99.90;;;;;;5105878;28;20027;-42
2022/04/22 04:48:01;;;;;;;11.80;9.30;;;10.40;99.90;;;;;;5096679;28;20031;-40
2022/04/22 04:50:27;;;;;;;10.95;9.20;;;10.40;99.90;;;;;;5107074;28;20034;-44
2022/04/22 04:52:52;;;;;;;12.35;10.15;;;10.40;99.90;;;;;;5095073;28;20027;-42
2022/04/22 04:55:18;;;;;;;11.05;8.43;;;10.40;99.90;;;;;;5108042;28;20780;-41
2022/04/22 04:57:44;;;;;;;12.25;9.65;;;10.40;99.90;;;;;;5094110;28;20078;-41
2022/04/22 05:00:11;;;;;;;11.35;9.95;;;10.40;99.90;;;;;;5107715;28;20679;-40
2022/04/22 05:02:37;;;;;;;13.48;8.95;;;10.40;99.90;;;;;;5094666;28;20043;-39
2022/04/22 05:05:09;;;;;;;12.10;9.20;;;10.40;99.90;;;;;;5106304;28;20023;-42
2022/04/22 05:07:49;;;;;;;10.93;9.52;;;10.30;99.90;;;;;;5096092;28;20372;-38
2022/04/22 05:10:16;;;;;;;12.93;10.02;;;10.30;99.90;;;;;;5106562;28;20028;-37
2022/04/22 05:12:42;;;;;;;11.13;10.00;;;10.30;99.90;;;;;;5097134;28;20036;-42
2022/04/22 05:15:08;;;;;;;10.65;9.43;;;10.30;99.90;;;;;;5104870;28;20429;-42
2022/04/22 05:17:34;;;;;;;14.07;10.23;;;10.30;99.90;;;;;;5099227;28;20062;-41
2022/04/22 05:20:03;;;;;;;12.60;10.57;;;10.30;99.90;;;;;;5101644;28;20027;-42
2022/04/22 05:22:29;;;;;;;11.05;9.85;;;10.30;99.90;;;;;;5101803;28;20040;-41
2022/04/22 05:24:57;;;;;;;11.07;9.48;;;10.30;99.90;;;;;;5105568;28;20028;-40
2022/04/22 05:27:24;;;;;;;10.48;9.38;;;10.30;99.90;;;;;;5103476;28;20023;-41
2022/04/22 05:32:36;;;;;;;10.13;8.98;;;10.30;99.90;;;;;;5104590;28;20027;-43
2022/04/22 05:35:06;;;;;;;11.77;10.45;;;10.30;99.90;;;;;;5097213;28;20039;-41
2022/04/22 05:37:48;;;;;;;11.75;10.45;;;10.40;99.90;;;;;;5105290;28;20050;-41
2022/04/22 05:40:16;;;;;;;13.15;11.02;;;10.40;99.90;;;;;;5087763;28;20040;-42
2022/04/22 05:42:42;;;;;;;12.10;10.68;;;10.30;99.90;;;;;;5104170;28;20036;-44
2022/04/22 05:45:09;;;;;;;11.38;10.15;;;10.30;99.90;;;;;;5095737;28;20016;-41
2022/04/22 05:47:35;;;;;;;13.55;11.23;;;10.30;99.90;;;;;;5104278;28;20486;-41
2022/04/22 05:50:02;;;;;;;12.13;10.50;;;10.30;99.90;;;;;;5095572;28;20016;-43
2022/04/22 05:52:28;;;;;;;13.40;11.82;;;10.30;99.90;;;;;;5106093;28;20089;-40
2022/04/22 05:54:54;;;;;;;11.50;10.30;;;10.40;99.90;;;;;;5093114;28;20039;-42
2022/04/22 05:57:23;;;;;;;10.82;9.68;;;10.40;99.90;;;;;;5106226;28;20069;-40
2022/04/22 05:59:48;;;;;;;12.93;10.43;;;10.40;99.90;;;;;;5093555;28;20027;-43
2022/04/22 06:02:14;;;;;;;11.23;9.45;;;10.50;99.90;;;;;;5105848;28;20043;-41
2022/04/22 06:04:42;;;;;;;13.18;10.27;;;10.50;99.90;;;;;;5094507;28;20020;-42
2022/04/22 06:07:07;;;;;;;13.27;11.50;;;10.50;99.90;;;;;;5105553;28;20046;-42
2022/04/22 06:12:17;;;;;;;14.27;9.98;;;10.60;99.90;;;;;;5105689;28;20089;-43
2022/04/22 06:14:46;;;;;;;12.25;10.80;;;10.60;99.90;;;;;;5097422;28;20040;-41
2022/04/22 06:17:12;;;;;;;15.15;10.90;;;10.70;99.90;;;;;;5102492;28;20051;-42
2022/04/22 06:19:38;;;;;;;13.32;10.85;;;10.70;99.90;;;;;;5097370;28;20066;-43
2022/04/22 06:22:06;;;;;;;11.68;10.10;;;10.80;99.90;;;;;;5100817;28;20549;-42
2022/04/22 06:24:31;;;;;;;12.80;10.07;;;10.80;99.90;;;;;;5099115;28;20387;-42
2022/04/22 06:26:57;;;;;;;13.88;10.07;;;10.90;99.90;;;;;;5098496;28;20031;-42
2022/04/22 06:29:23;;;;;;;15.50;12.23;;;10.90;99.90;;;;;;5094807;28;20116;-43
2022/04/22 06:31:49;;;;;;;11.73;10.38;;;10.90;99.90;;;;;;5103440;28;20034;-42
2022/04/22 06:34:14;;;;;;;12.35;11.00;;;10.90;99.90;;;;;;5088816;28;20075;-42
2022/04/22 06:36:43;;;;;;;14.30;12.05;;;11.00;99.90;;;;;;5092720;28;20035;-41
2022/04/22 06:39:09;;;;;;;15.52;12.10;;;11.00;99.90;;;;;;5085902;28;20079;-41
2022/04/22 06:47:06;;;;;;;15.90;12.40;;;11.20;99.90;;;;;;5098041;28;20075;-42
2022/04/22 06:49:32;;;;;;;14.35;12.27;;;11.20;99.90;;;;;;5091582;28;20066;-42
2022/04/22 06:52:06;;;;;;;17.15;13.50;;;11.30;99.90;;;;;;5096122;28;20036;-42
2022/04/22 06:54:32;;;;;;;15.93;11.98;;;11.30;99.90;;;;;;5084801;28;20028;-41
2022/04/22 06:56:59;;;;;;;14.07;11.52;;;11.30;99.90;;;;;;5079387;28;20045;-44
2022/04/22 06:59:24;;;;;;;15.65;12.57;;;11.40;99.90;;;;;;5075744;28;20788;-41
2022/04/22 07:01:51;;;;;;;18.13;13.43;;;11.50;99.90;;;;;;5076218;28;20035;-41
2022/04/22 07:04:16;;;;;;;15.00;11.48;;;11.50;99.90;;;;;;5074689;28;20484;-40
2022/04/22 07:06:42;;;;;;;15.32;11.45;;;11.50;99.90;;;;;;5072476;28;20020;-41
2022/04/22 07:09:10;;;;;;;15.98;11.77;;;11.60;99.90;;;;;;5077044;28;20031;-42
2022/04/22 07:11:37;;;;;;;16.13;11.45;;;11.60;99.90;;;;;;5074059;28;20142;-41
2022/04/22 07:14:03;;;;;;;17.63;12.05;;;11.60;99.90;;;;;;5077508;28;20019;-41
2022/04/22 07:16:31;;;;;;;15.27;11.70;;;11.70;99.90;;;;;;5073567;28;20639;-40
2022/04/22 07:18:59;;;;;;;13.60;11.23;;;11.70;99.90;;;;;;5075871;28;20023;-41
2022/04/22 07:21:25;;;;;;;13.50;11.52;;;11.80;99.90;;;;;;5075479;28;20063;-39
2022/04/22 07:23:52;;;;;;;14.57;11.77;;;11.80;99.90;;;;;;5076792;28;20173;-43
2022/04/22 07:26:19;;;;;;;12.00;10.77;;;11.90;99.90;;;;;;5089809;28;20026;-43
2022/04/22 07:28:47;;;;;;;12.43;9.80;;;11.90;99.90;;;;;;5092190;28;20066;-40
2022/04/22 07:31:18;;;;;;;11.60;10.38;;;12.00;99.90;;;;;;5089716;28;20028;-42
2022/04/22 07:33:44;;;;;;;15.23;10.98;;;12.10;99.90;;;;;;5092123;28;20016;-40
2022/04/22 07:36:10;;;;;;;12.35;10.55;;;12.20;99.90;;;;;;5091669;28;20020;-43
2022/04/22 07:38:35;;;;;;;12.32;10.18;;;12.20;99.90;;;;;;5090178;28;20391;-43
2022/04/22 07:41:02;;;;;;;12.05;10.25;;;12.30;99.90;;;;;;5091174;28;20042;-42
2022/04/22 07:48:57;;;;;;;13.35;9.52;;;12.50;99.90;;;;;;5091035;28;20034;-42
2022/04/22 07:51:25;;;;;;;14.80;10.73;;;12.50;99.90;;;;;;5091377;28;20437;-43
2022/04/22 07:53:51;;;;;;;13.73;10.48;;;12.60;99.90;;;;;;5090164;28;20497;-42
2022/04/22 07:56:19;;;;;;;13.15;9.35;;;12.60;99.90;;;;;;5090750;28;20055;-41
2022/04/22 07:58:45;;;;;;;13.60;10.43;;;12.80;99.90;;;;;;5091374;28;20115;-41
2022/04/22 08:01:10;;;;;;;12.88;9.55;;;13.00;99.90;;;;;;5091397;28;20891;-41
2022/04/22 08:03:36;;;;;;;9.35;7.82;;;13.10;99.90;;;;;;5090756;28;20034;-42
2022/04/22 08:06:02;;;;;;;9.77;8.27;;;13.20;99.90;;;;;;5093020;28;20028;-41
2022/04/22 08:08:30;;;;;;;10.93;8.45;;;13.30;99.90;;;;;;5088016;28;20133;-43
2022/04/22 08:10:56;;;;;;;11.10;9.35;;;13.40;99.90;;;;;;5095805;28;20038;-42
2022/04/22 08:13:22;;;;;;;13.15;10.23;;;13.50;99.90;;;;;;5094077;28;20064;-42
2022/04/22 08:15:47;;;;;;;14.52;10.10;;;13.70;99.90;;;;;;5096536;28;20051;-41
2022/04/22 08:18:13;;;;;;;13.27;9.40;;;13.80;99.90;;;;;;5094345;28;20032;-44
2022/04/22 08:20:38;;;;;;;11.00;8.70;;;13.90;99.90;;;;;;5094075;28;20073;-41
2022/04/22 08:23:05;;;;;;;11.18;8.75;;;13.90;99.90;;;;;;5094520;28;20108;-42
2022/04/22 08:25:31;;;;;;;13.13;9.88;;;14.00;99.90;;;;;;5094990;28;20035;-42
2022/04/22 08:27:56;;;;;;;12.65;9.45;;;14.10;99.90;;;;;;5096386;28;20015;-41
2022/04/22 08:30:22;;;;;;;10.30;9.02;;;14.10;99.90;;;;;;5094967;28;20032;-44
2022/04/22 08:32:47;;;;;;;12.57;9.90;;;14.10;99.90;;;;;;5095647;28;20036;-42
2022/04/22 08:35:13;;;;;;;11.70;9.75;;;14.00;99.90;;;;;;5094595;28;20019;-43
2022/04/22 08:37:42;;;;;;;12.25;10.07;;;14.00;99.90;;;;;;5089561;28;20023;-42
2022/04/22 08:40:08;;;;;;;10.63;9.07;;;14.00;99.90;;;;;;5095269;28;20708;-42
2022/04/22 08:42:35;;;;;;;13.05;9.98;;;14.00;99.90;;;;;;5093063;28;20078;-43
2022/04/22 08:45:01;;;;;;;12.65;9.73;;;14.00;99.90;;;;;;5094276;28;20102;-42
2022/04/22 08:50:16;;;;;;;10.77;9.60;;;14.20;99.60;;;;;;5095056;28;20134;-41
2022/04/22 08:52:47;;;;;;;11.93;9.75;;;14.30;99.20;;;;;;5093071;28;20034;-42
2022/04/22 08:55:13;;;;;;;10.45;8.73;;;14.30;99.10;;;;;;5093767;28;20043;-43
2022/04/22 08:57:39;;;;;;;12.25;8.57;;;14.40;99.40;;;;;;5094195;28;20051;-42
2022/04/22 09:00:07;;;;;;;9.77;8.63;;;14.50;99.00;;;;;;5094263;28;20028;-42
2022/04/22 09:02:33;;;;;;;9.82;8.70;;;14.60;98.80;;;;;;5092230;28;20051;-41
2022/04/22 09:04:59;;;;;;;11.10;7.68;;;14.60;98.50;;;;;;5092713;28;20119;-41
2022/04/22 09:07:26;;;;;;;10.80;8.52;;;14.70;98.50;;;;;;5093116;28;20031;-41
2022/04/22 09:09:52;;;;;;;11.15;8.95;;;14.70;98.10;;;;;;5094260;28;20061;-41
2022/04/22 09:12:20;;;;;;;10.10;9.05;;;14.70;97.90;;;;;;5093623;28;20053;-42
2022/04/22 09:14:49;;;;;;;9.43;7.88;;;14.70;98.00;;;;;;5093713;28;20031;-41
2022/04/22 09:17:16;;;;;;;10.23;8.32;;;14.60;97.90;;;;;;5093031;28;20016;-43
2022/04/22 09:19:43;;;;;;;9.60;7.97;;;14.60;97.60;;;;;;5093000;28;20571;-41
2022/04/22 09:22:09;;;;;;;10.73;8.57;;;14.60;97.50;;;;;;5093226;28;20023;-43
2022/04/22 09:24:58;;;;;;;10.63;8.68;;;14.60;97.60;;;;;;5095510;28;20046;-42
2022/04/22 09:27:35;;;;;;;12.27;8.20;;;14.60;97.60;;;;;;5090779;28;20875;-42
2022/04/22 09:30:03;;;;;;;8.95;7.30;;;14.60;97.60;;;;;;5093636;28;20050;-43
2022/04/22 09:32:31;;;;;;;9.93;8.88;;;14.60;97.60;;;;;;5089580;28;20016;-42
2022/04/22 09:35:07;;;;;;;9.43;8.00;;;14.60;97.30;;;;;;5091333;28;20076;-42
2022/04/22 09:43:14;;;;;;;10.30;7.72;;;14.50;97.70;;;;;;5001175;28;20041;-41
2022/04/22 09:45:40;;;;;;;8.65;7.22;;;14.60;97.30;;;;;;5091267;28;20019;-40
2022/04/22 09:48:14;;;;;;;8.45;5.97;;;14.70;97.40;;;;;;5091154;28;20092;-43
2022/04/22 09:50:42;;;;;;;9.90;6.90;;;14.80;97.40;;;;;;5090587;28;20036;-42
2022/04/22 09:53:09;;;;;;;7.63;5.57;;;14.90;97.30;;;;;;5093589;28;20919;-43
2022/04/22 09:55:45;;;;;;;8.40;6.72;;;15.00;97.30;;;;;;5089275;28;20023;-42
2022/04/22 09:58:11;;;;;;;7.68;6.57;;;15.10;97.20;;;;;;5091642;28;20032;-41
2022/04/22 10:00:37;;;;;;;9.55;6.65;;;15.20;97.00;;;;;;5092266;28;20386;-41
2022/04/22 10:03:04;;;;;;;8.32;6.63;;;15.20;96.50;;;;;;5090716;28;20134;-42
2022/04/22 10:05:33;;;;;;;7.57;6.10;;;15.20;96.40;;;;;;5092554;28;20042;-42
2022/04/22 10:08:02;;;;;;;10.48;6.35;;;15.20;96.50;;;;;;5092348;28;20023;-42
2022/04/22 10:10:33;;;;;;;7.20;5.53;;;15.30;96.40;;;;;;5092296;28;20024;-41
2022/04/22 10:13:02;;;;;;;6.75;5.50;;;15.40;96.40;;;;;;5092361;28;20114;-42
2022/04/22 10:15:30;;;;;;;8.27;6.28;;;15.50;96.40;;;;;;5092909;28;20076;-42
2022/04/22 10:17:57;;;;;;;8.52;6.20;;;15.50;96.00;;;;;;5093143;28;20043;-43
2022/04/22 10:20:25;;;;;;;6.65;5.75;;;15.60;95.70;;;;;;5092432;28;21073;-42
2022/04/22 10:22:51;;;;;;;6.43;5.57;;;15.60;95.50;;;;;;5090744;28;20051;-42
2022/04/22 10:25:17;;;;;;;7.38;5.60;;;15.70;95.60;;;;;;5093873;28;20015;-42
2022/04/22 10:27:44;;;;;;;7.82;5.85;;;15.80;95.50;;;;;;5090940;28;20023;-43
2022/04/22 10:30:11;;;;;;;6.55;5.82;;;15.90;95.40;;;;;;5094964;28;20110;-41
2022/04/22 10:32:42;;;;;;;7.07;6.20;;;16.00;95.20;;;;;;5091056;28;20034;-43
2022/04/22 10:35:09;;;;;;;8.30;6.20;;;16.00;94.60;;;;;;5093340;28;20668;-43
2022/04/22 10:37:38;;;;;;;6.70;5.85;;;15.90;94.40;;;;;;5090925;28;20463;-38
2022/04/22 10:40:05;;;;;;;7.78;6.00;;;15.90;94.20;;;;;;5093737;28;20048;-41
2022/04/22 10:42:35;;;;;;;9.57;6.40;;;15.80;94.50;;;;;;5091591;28;21245;-42
2022/04/22 10:47:53;;;;;;;6.60;5.93;;;15.70;94.00;;;;;;5091074;28;20827;-40
2022/04/22 10:50:35;;;;;;;8.95;6.25;;;15.60;93.90;;;;;;5092924;28;20073;-42
2022/04/22 10:53:25;;;;;;;8.73;5.65;;;15.50;93.90;;;;;;5092048;28;20043;-42
2022/04/22 10:55:51;;;;;;;7.78;5.43;;;15.50;94.00;;;;;;5091155;28;20024;-41
2022/04/22 10:58:17;;;;;;;8.13;5.50;;;15.50;94.20;;;;;;5091125;28;20031;-40
2022/04/22 11:00:44;;;;;;;7.45;5.38;;;15.50;94.10;;;;;;5093648;28;20580;-39
2022/04/22 11:03:23;;;;;;;8.05;5.35;;;15.50;94.20;;;;;;5089130;28;20023;-41
2022/04/22 11:06:00;;;;;;;9.40;6.40;;;15.60;94.10;;;;;;5092149;28;20031;-41
2022/04/22 11:08:32;;;;;;;5.03;4.00;;;15.70;93.60;;;;;;5089689;28;20132;-42
2022/04/22 11:11:15;;;;;;;5.32;4.60;;;15.90;93.70;;;;;;5091662;28;20020;-41
2022/04/22 11:13:43;;;;;;;6.93;4.97;;;16.20;93.60;;;;;;5089631;28;20024;-40
2022/04/22 11:16:13;;;;;;;4.68;3.90;;;16.30;93.00;;;;;;5092963;28;20041;-41
2022/04/22 11:18:42;;;;;;;6.18;4.20;;;16.30;92.80;;;;;;5090958;28;20079;-41
2022/04/22 11:21:37;;;;;;;5.55;4.65;;;16.40;92.50;;;;;;5091946;28;20024;-42
2022/04/22 11:24:15;;;;;;;6.20;4.57;;;16.40;91.70;;;;;;5091180;28;20062;-42
2022/04/22 11:26:41;;;;;;;5.28;3.58;;;16.30;91.90;;;;;;5092595;28;20038;-41
2022/04/22 11:29:08;;;;;;;8.23;5.00;;;16.30;91.50;;;;;;5092973;28;20020;-41
2022/04/22 11:31:35;;;;;;;8.30;4.68;;;16.30;90.70;;;;;;5094680;28;20130;-40
2022/04/22 11:34:07;;;;;;;6.15;4.05;;;16.30;90.30;;;;;;5091162;28;20028;-42
2022/04/22 11:36:52;;;;;;;6.18;4.25;;;16.30;90.30;;;;;;5091446;28;20505;-41
2022/04/22 11:39:22;;;;;;;6.88;4.30;;;16.50;90.10;;;;;;5089727;28;20023;-41
2022/04/22 11:41:57;;;;;;;6.22;3.75;;;16.70;90.30;;;;;;5090583;28;20470;-42
2022/04/22 11:44:24;;;;;;;4.95;4.10;;;17.00;90.20;;;;;;5088880;28;20042;-41
2022/04/22 11:46:53;;;;;;;5.60;3.90;;;17.10;89.10;;;;;;5091413;28;20028;-42
2022/04/22 11:49:28;;;;;;;4.30;3.58;;;17.20;87.60;;;;;;5091842;28;20491;-43
2022/04/22 11:51:54;;;;;;;4.68;3.35;;;17.20;87.40;;;;;;5090140;28;20475;-41
2022/04/22 11:54:26;;;;;;;4.95;3.25;;;17.20;86.50;;;;;;5090040;28;20113;-41
2022/04/22 11:56:53;;;;;;;4.18;3.20;;;17.20;86.80;;;;;;5091242;28;20048;-42
2022/04/22 11:59:23;;;;;;;4.95;3.10;;;17.30;86.70;;;;;;5092284;28;20031;-43
2022/04/22 12:05:32;;;;;;;3.92;3.10;;;17.30;86.20;;;;;;5091200;28;20161;-41
2022/04/22 12:10:33;;;;;;;4.97;4.03;;;17.40;84.50;;;;;;4972885;28;20038;-43
2022/04/22 12:13:03;;;;;;;6.78;3.80;;;17.40;83.10;;;;;;4970651;28;20061;-41
2022/04/22 12:15:29;;;;;;;4.90;3.40;;;17.40;83.00;;;;;;5029245;28;20118;-41
2022/04/22 12:17:56;;;;;;;5.88;3.90;;;17.40;82.90;;;;;;5092454;28;20028;-42
2022/04/22 12:20:22;;;;;;;6.10;3.63;;;17.40;82.10;;;;;;5093109;28;20023;-44
2022/04/22 12:22:52;;;;;;;5.95;4.00;;;17.50;82.20;;;;;;5090310;28;20027;-42
2022/04/22 12:25:20;;;;;;;4.95;3.45;;;17.60;82.20;;;;;;5091995;28;20058;-42
2022/04/22 12:28:07;;;;;;;4.35;3.38;;;17.60;82.30;;;;;;5090632;28;20084;-42
2022/04/22 12:30:37;;;;;;;4.53;3.67;;;17.70;82.50;;;;;;5090042;28;20451;-43
2022/04/22 12:33:04;;;;;;;5.13;3.97;;;17.90;81.40;;;;;;5089985;28;20730;-41
2022/04/22 12:35:30;;;;;;;6.20;4.03;;;17.90;81.70;;;;;;5090331;28;20571;-42
2022/04/22 12:37:56;;;;;;;4.13;3.45;;;17.80;81.60;;;;;;5091437;28;20065;-41
2022/04/22 12:40:22;;;;;;;6.35;3.85;;;17.80;82.10;;;;;;5091749;28;20036;-43
2022/04/22 12:42:50;;;;;;;5.55;3.92;;;17.70;81.30;;;;;;5089719;28;20051;-41
2022/04/22 12:53:50;;;;;;;4.78;3.80;;;18.10;81.20;;;;;;5090259;28;20155;-42
2022/04/22 12:56:23;;;;;;;4.88;4.22;;;18.30;81.60;;;;;;5095714;28;20131;-41
2022/04/22 12:58:59;;;;;;;6.18;3.42;;;18.50;79.70;;;;;;5092600;28;20107;-41
2022/04/22 13:01:27;;;;;;;5.47;3.40;;;18.70;78.80;;;;;;5094006;28;20382;-41
2022/04/22 13:03:53;;;;;;;5.53;3.20;;;18.80;78.40;;;;;;5093057;28;20027;-41
2022/04/22 13:06:42;;;;;;;8.48;3.92;;;18.70;78.60;;;;;;5094561;28;20072;-42
2022/04/22 13:09:09;;;;;;;6.22;3.67;;;18.80;77.80;;;;;;5091390;28;20067;-42
2022/04/22 13:11:34;;;;;;;6.13;3.88;;;18.80;77.90;;;;;;5094478;28;20030;-40
2022/04/22 13:14:00;;;;;;;5.28;3.10;;;18.90;77.70;;;;;;5091996;28;20028;-43
2022/04/22 13:16:26;;;;;;;4.65;3.10;;;19.10;77.00;;;;;;5094156;28;20045;-42
2022/04/22 13:18:54;;;;;;;4.70;3.05;;;19.20;76.10;;;;;;5093490;28;20754;-42
2022/04/22 13:21:20;;;;;;;3.50;3.20;;;19.20;76.10;;;;;;5094194;28;20027;-43
2022/04/22 13:23:54;;;;;;;6.28;3.95;;;19.20;75.30;;;;;;5091812;28;20092;-42
2022/04/22 13:26:20;;;;;;;4.50;3.35;;;19.10;74.30;;;;;;5091457;28;20020;-41
2022/04/22 13:28:46;;;;;;;4.93;3.63;;;18.90;74.20;;;;;;5092945;28;20026;-42
2022/04/22 13:31:12;;;;;;;4.88;3.42;;;18.80;74.30;;;;;;5094355;28;20027;-42
2022/04/22 13:33:38;;;;;;;6.90;3.70;;;18.60;75.10;;;;;;5092718;28;20020;-41
2022/04/22 13:36:04;;;;;;;5.05;3.78;;;18.60;74.20;;;;;;5096100;28;20076;-41
2022/04/22 13:38:32;;;;;;;5.80;3.40;;;18.50;74.20;;;;;;5092597;28;20035;-42
2022/04/22 13:41:01;;;;;;;3.92;3.30;;;18.40;74.70;;;;;;5094626;28;20507;-42
2022/04/22 13:43:30;;;;;;;3.85;3.40;;;18.40;74.70;;;;;;5090237;28;20032;-42
2022/04/22 13:54:09;;;;;;;5.82;3.08;;;18.70;74.70;;;;;;5091453;28;20084;-42
2022/04/22 13:56:34;;;;;;;5.45;3.38;;;18.80;74.70;;;;;;5092126;28;20130;-42
2022/04/22 13:59:00;;;;;;;4.03;3.50;;;18.90;74.50;;;;;;5093498;28;20041;-42